sensor_id;sensor_type;location;lat;lon;timestamp;P1;durP1;ratioP1;P2;durP2;ratioP2
49688;SDS011;70518;51.400;7.428;2023-11-19T00:01:54;0.85;;;0.10;;
49688;SDS011;70518;51.400;7.428;2023-11-19T00:04:20;0.17;;;0.10;;
49688;SDS011;70518;51.400;7.428;2023-11-19T00:06:45;0.20;;;0.10;;
49688;SDS011;70518;51.400;7.428;2023-11-19T00:09:10;0.25;;;0.10;;
49688;SDS011;70518;51.400;7.428;2023-11-19T00:11:36;0.10;;;0.10;;
49688;SDS011;70518;51.400;7.428;2023-11-19T00:14:02;0.88;;;0.10;;
49688;SDS011;70518;51.400;7.428;2023-11-19T00:16:28;0.60;;;0.10;;
49688;SDS011;70518;51.400;7.428;2023-11-19T00:18:53;1.05;;;0.13;;
49688;SDS011;70518;51.400;7.428;2023-11-19T00:21:19;0.32;;;0.20;;
49688;SDS011;70518;51.400;7.428;2023-11-19T00:23:44;0.95;;;0.20;;
49688;SDS011;70518;51.400;7.428;2023-11-19T00:26:09;0.90;;;0.20;;
49688;SDS011;70518;51.400;7.428;2023-11-19T00:28:35;0.43;;;0.30;;
49688;SDS011;70518;51.400;7.428;2023-11-19T00:31:03;0.98;;;0.30;;
49688;SDS011;70518;51.400;7.428;2023-11-19T00:33:29;0.50;;;0.28;;
49688;SDS011;70518;51.400;7.428;2023-11-19T00:35:54;1.38;;;0.30;;
49688;SDS011;70518;51.400;7.428;2023-11-19T00:38:21;0.63;;;0.40;;
49688;SDS011;70518;51.400;7.428;2023-11-19T00:40:46;0.95;;;0.40;;
49688;SDS011;70518;51.400;7.428;2023-11-19T00:43:11;2.15;;;0.40;;
49688;SDS011;70518;51.400;7.428;2023-11-19T00:45:36;1.65;;;0.40;;
49688;SDS011;70518;51.400;7.428;2023-11-19T00:48:02;1.45;;;0.40;;
49688;SDS011;70518;51.400;7.428;2023-11-19T00:50:27;0.60;;;0.30;;
49688;SDS011;70518;51.400;7.428;2023-11-19T00:52:54;1.25;;;0.40;;
49688;SDS011;70518;51.400;7.428;2023-11-19T00:55:19;1.80;;;0.50;;
49688;SDS011;70518;51.400;7.428;2023-11-19T00:57:45;2.45;;;0.40;;
49688;SDS011;70518;51.400;7.428;2023-11-19T01:00:10;1.58;;;0.40;;
49688;SDS011;70518;51.400;7.428;2023-11-19T01:02:44;0.70;;;0.40;;
49688;SDS011;70518;51.400;7.428;2023-11-19T01:05:10;1.92;;;0.47;;
49688;SDS011;70518;51.400;7.428;2023-11-19T01:07:39;1.80;;;0.60;;
49688;SDS011;70518;51.400;7.428;2023-11-19T01:10:04;1.02;;;0.50;;
49688;SDS011;70518;51.400;7.428;2023-11-19T01:12:30;2.60;;;0.70;;
49688;SDS011;70518;51.400;7.428;2023-11-19T01:14:56;1.05;;;0.50;;
49688;SDS011;70518;51.400;7.428;2023-11-19T01:17:22;1.17;;;0.40;;
49688;SDS011;70518;51.400;7.428;2023-11-19T01:19:48;2.78;;;0.55;;
49688;SDS011;70518;51.400;7.428;2023-11-19T01:22:15;2.17;;;0.60;;
49688;SDS011;70518;51.400;7.428;2023-11-19T01:24:40;1.05;;;0.60;;
49688;SDS011;70518;51.400;7.428;2023-11-19T01:27:05;2.08;;;0.70;;
49688;SDS011;70518;51.400;7.428;2023-11-19T01:29:31;2.05;;;0.85;;
49688;SDS011;70518;51.400;7.428;2023-11-19T01:31:56;1.48;;;0.70;;
49688;SDS011;70518;51.400;7.428;2023-11-19T01:34:21;1.77;;;0.70;;
49688;SDS011;70518;51.400;7.428;2023-11-19T01:36:47;1.48;;;0.88;;
49688;SDS011;70518;51.400;7.428;2023-11-19T01:39:13;2.55;;;0.80;;
49688;SDS011;70518;51.400;7.428;2023-11-19T01:41:41;2.63;;;0.80;;
49688;SDS011;70518;51.400;7.428;2023-11-19T01:44:06;2.58;;;0.80;;
49688;SDS011;70518;51.400;7.428;2023-11-19T01:46:31;2.80;;;0.80;;
49688;SDS011;70518;51.400;7.428;2023-11-19T01:48:57;0.90;;;0.57;;
49688;SDS011;70518;51.400;7.428;2023-11-19T01:51:24;1.27;;;0.70;;
49688;SDS011;70518;51.400;7.428;2023-11-19T01:53:50;1.48;;;0.60;;
49688;SDS011;70518;51.400;7.428;2023-11-19T01:56:17;0.63;;;0.50;;
49688;SDS011;70518;51.400;7.428;2023-11-19T01:58:43;1.00;;;0.60;;
49688;SDS011;70518;51.400;7.428;2023-11-19T02:01:10;0.88;;;0.60;;
49688;SDS011;70518;51.400;7.428;2023-11-19T02:03:37;0.63;;;0.50;;
49688;SDS011;70518;51.400;7.428;2023-11-19T02:06:03;0.85;;;0.50;;
49688;SDS011;70518;51.400;7.428;2023-11-19T02:08:29;1.40;;;0.40;;
49688;SDS011;70518;51.400;7.428;2023-11-19T02:10:54;1.85;;;0.40;;
49688;SDS011;70518;51.400;7.428;2023-11-19T02:13:22;2.72;;;0.55;;
49688;SDS011;70518;51.400;7.428;2023-11-19T02:15:47;0.82;;;0.50;;
49688;SDS011;70518;51.400;7.428;2023-11-19T02:18:23;1.45;;;0.50;;
49688;SDS011;70518;51.400;7.428;2023-11-19T02:20:58;1.35;;;0.40;;
49688;SDS011;70518;51.400;7.428;2023-11-19T02:23:26;0.70;;;0.50;;
49688;SDS011;70518;51.400;7.428;2023-11-19T02:28:34;2.08;;;0.60;;
49688;SDS011;70518;51.400;7.428;2023-11-19T02:31:01;4.68;;;0.88;;
49688;SDS011;70518;51.400;7.428;2023-11-19T02:33:29;2.75;;;0.50;;
49688;SDS011;70518;51.400;7.428;2023-11-19T02:35:54;2.88;;;0.57;;
49688;SDS011;70518;51.400;7.428;2023-11-19T02:38:20;4.18;;;0.63;;
49688;SDS011;70518;51.400;7.428;2023-11-19T02:40:46;2.30;;;0.43;;
49688;SDS011;70518;51.400;7.428;2023-11-19T02:43:12;5.70;;;0.60;;
49688;SDS011;70518;51.400;7.428;2023-11-19T02:45:38;4.70;;;0.55;;
49688;SDS011;70518;51.400;7.428;2023-11-19T02:48:03;3.95;;;0.50;;
49688;SDS011;70518;51.400;7.428;2023-11-19T02:50:31;3.90;;;0.43;;
49688;SDS011;70518;51.400;7.428;2023-11-19T02:52:57;6.00;;;0.47;;
49688;SDS011;70518;51.400;7.428;2023-11-19T02:55:22;4.55;;;0.60;;
49688;SDS011;70518;51.400;7.428;2023-11-19T02:57:49;5.15;;;0.68;;
49688;SDS011;70518;51.400;7.428;2023-11-19T03:00:18;4.65;;;0.45;;
49688;SDS011;70518;51.400;7.428;2023-11-19T03:02:48;4.25;;;0.70;;
49688;SDS011;70518;51.400;7.428;2023-11-19T03:05:29;3.53;;;0.40;;
49688;SDS011;70518;51.400;7.428;2023-11-19T03:07:55;4.82;;;0.80;;
49688;SDS011;70518;51.400;7.428;2023-11-19T03:10:20;2.45;;;0.40;;
49688;SDS011;70518;51.400;7.428;2023-11-19T03:12:45;5.22;;;0.70;;
49688;SDS011;70518;51.400;7.428;2023-11-19T03:15:10;4.68;;;0.50;;
49688;SDS011;70518;51.400;7.428;2023-11-19T03:17:39;8.45;;;0.80;;
49688;SDS011;70518;51.400;7.428;2023-11-19T03:20:05;4.80;;;0.68;;
49688;SDS011;70518;51.400;7.428;2023-11-19T03:22:34;7.05;;;0.60;;
49688;SDS011;70518;51.400;7.428;2023-11-19T03:25:00;8.50;;;0.80;;
49688;SDS011;70518;51.400;7.428;2023-11-19T03:27:25;10.93;;;1.20;;
49688;SDS011;70518;51.400;7.428;2023-11-19T03:29:50;9.20;;;0.50;;
49688;SDS011;70518;51.400;7.428;2023-11-19T03:32:15;7.00;;;0.88;;
49688;SDS011;70518;51.400;7.428;2023-11-19T03:34:41;5.82;;;0.60;;
49688;SDS011;70518;51.400;7.428;2023-11-19T03:37:06;10.05;;;0.75;;
49688;SDS011;70518;51.400;7.428;2023-11-19T03:39:31;8.27;;;0.70;;
49688;SDS011;70518;51.400;7.428;2023-11-19T03:41:57;6.95;;;0.75;;
49688;SDS011;70518;51.400;7.428;2023-11-19T03:44:23;7.60;;;0.90;;
49688;SDS011;70518;51.400;7.428;2023-11-19T03:46:48;9.68;;;0.90;;
49688;SDS011;70518;51.400;7.428;2023-11-19T03:49:13;6.82;;;0.68;;
49688;SDS011;70518;51.400;7.428;2023-11-19T03:51:39;6.93;;;0.80;;
49688;SDS011;70518;51.400;7.428;2023-11-19T03:54:04;9.93;;;0.93;;
49688;SDS011;70518;51.400;7.428;2023-11-19T03:56:31;8.07;;;1.05;;
49688;SDS011;70518;51.400;7.428;2023-11-19T03:58:57;12.27;;;0.90;;
49688;SDS011;70518;51.400;7.428;2023-11-19T04:01:23;13.60;;;1.35;;
49688;SDS011;70518;51.400;7.428;2023-11-19T04:03:48;10.48;;;1.15;;
49688;SDS011;70518;51.400;7.428;2023-11-19T04:06:13;8.63;;;0.98;;
49688;SDS011;70518;51.400;7.428;2023-11-19T04:08:39;11.00;;;1.00;;
49688;SDS011;70518;51.400;7.428;2023-11-19T04:11:04;11.65;;;1.40;;
49688;SDS011;70518;51.400;7.428;2023-11-19T04:13:30;9.60;;;1.05;;
49688;SDS011;70518;51.400;7.428;2023-11-19T04:15:55;13.77;;;0.98;;
49688;SDS011;70518;51.400;7.428;2023-11-19T04:18:20;9.25;;;1.23;;
49688;SDS011;70518;51.400;7.428;2023-11-19T04:20:46;15.73;;;1.00;;
49688;SDS011;70518;51.400;7.428;2023-11-19T04:23:11;7.05;;;0.73;;
49688;SDS011;70518;51.400;7.428;2023-11-19T04:25:36;6.40;;;0.95;;
49688;SDS011;70518;51.400;7.428;2023-11-19T04:28:01;7.50;;;0.90;;
49688;SDS011;70518;51.400;7.428;2023-11-19T04:30:27;9.40;;;1.17;;
49688;SDS011;70518;51.400;7.428;2023-11-19T04:32:52;14.25;;;1.10;;
49688;SDS011;70518;51.400;7.428;2023-11-19T04:35:18;9.65;;;0.77;;
49688;SDS011;70518;51.400;7.428;2023-11-19T04:37:44;10.95;;;1.00;;
49688;SDS011;70518;51.400;7.428;2023-11-19T04:40:09;9.30;;;1.73;;
49688;SDS011;70518;51.400;7.428;2023-11-19T04:42:36;10.18;;;1.05;;
49688;SDS011;70518;51.400;7.428;2023-11-19T04:45:02;13.45;;;0.90;;
49688;SDS011;70518;51.400;7.428;2023-11-19T04:47:30;12.43;;;1.17;;
49688;SDS011;70518;51.400;7.428;2023-11-19T04:49:56;8.13;;;0.90;;
49688;SDS011;70518;51.400;7.428;2023-11-19T04:52:21;14.82;;;1.25;;
49688;SDS011;70518;51.400;7.428;2023-11-19T04:54:46;14.48;;;1.38;;
49688;SDS011;70518;51.400;7.428;2023-11-19T04:57:13;15.52;;;1.67;;
49688;SDS011;70518;51.400;7.428;2023-11-19T04:59:38;15.02;;;1.10;;
49688;SDS011;70518;51.400;7.428;2023-11-19T05:02:04;12.57;;;1.40;;
49688;SDS011;70518;51.400;7.428;2023-11-19T05:04:30;13.43;;;1.42;;
49688;SDS011;70518;51.400;7.428;2023-11-19T05:06:55;10.05;;;1.02;;
49688;SDS011;70518;51.400;7.428;2023-11-19T05:09:21;10.95;;;1.63;;
49688;SDS011;70518;51.400;7.428;2023-11-19T05:11:46;18.00;;;1.73;;
49688;SDS011;70518;51.400;7.428;2023-11-19T05:14:12;15.57;;;1.35;;
49688;SDS011;70518;51.400;7.428;2023-11-19T05:16:39;13.43;;;1.60;;
49688;SDS011;70518;51.400;7.428;2023-11-19T05:19:05;14.30;;;1.45;;
49688;SDS011;70518;51.400;7.428;2023-11-19T05:21:30;11.68;;;1.20;;
49688;SDS011;70518;51.400;7.428;2023-11-19T05:23:55;17.35;;;1.73;;
49688;SDS011;70518;51.400;7.428;2023-11-19T05:26:22;12.85;;;1.88;;
49688;SDS011;70518;51.400;7.428;2023-11-19T05:28:49;16.67;;;2.13;;
49688;SDS011;70518;51.400;7.428;2023-11-19T05:31:15;12.82;;;1.60;;
49688;SDS011;70518;51.400;7.428;2023-11-19T05:33:41;12.55;;;1.20;;
49688;SDS011;70518;51.400;7.428;2023-11-19T05:36:06;13.40;;;1.27;;
49688;SDS011;70518;51.400;7.428;2023-11-19T05:38:33;11.18;;;1.20;;
49688;SDS011;70518;51.400;7.428;2023-11-19T05:40:58;15.88;;;1.33;;
49688;SDS011;70518;51.400;7.428;2023-11-19T05:43:24;18.58;;;1.45;;
49688;SDS011;70518;51.400;7.428;2023-11-19T05:45:49;15.77;;;1.40;;
49688;SDS011;70518;51.400;7.428;2023-11-19T05:48:14;13.35;;;1.60;;
49688;SDS011;70518;51.400;7.428;2023-11-19T05:50:39;18.50;;;1.80;;
49688;SDS011;70518;51.400;7.428;2023-11-19T05:53:05;14.50;;;1.63;;
49688;SDS011;70518;51.400;7.428;2023-11-19T05:55:39;16.23;;;1.80;;
49688;SDS011;70518;51.400;7.428;2023-11-19T05:58:13;17.30;;;1.50;;
49688;SDS011;70518;51.400;7.428;2023-11-19T06:00:39;15.80;;;2.45;;
49688;SDS011;70518;51.400;7.428;2023-11-19T06:03:05;15.23;;;1.10;;
49688;SDS011;70518;51.400;7.428;2023-11-19T06:05:31;15.60;;;1.45;;
49688;SDS011;70518;51.400;7.428;2023-11-19T06:07:57;15.20;;;1.27;;
49688;SDS011;70518;51.400;7.428;2023-11-19T06:10:22;19.20;;;1.63;;
49688;SDS011;70518;51.400;7.428;2023-11-19T06:12:49;15.18;;;2.28;;
49688;SDS011;70518;51.400;7.428;2023-11-19T06:15:20;16.77;;;1.40;;
49688;SDS011;70518;51.400;7.428;2023-11-19T06:17:46;17.40;;;1.80;;
49688;SDS011;70518;51.400;7.428;2023-11-19T06:20:11;20.00;;;2.05;;
49688;SDS011;70518;51.400;7.428;2023-11-19T06:22:36;15.68;;;1.58;;
49688;SDS011;70518;51.400;7.428;2023-11-19T06:25:02;15.63;;;2.13;;
49688;SDS011;70518;51.400;7.428;2023-11-19T06:27:32;16.10;;;3.03;;
49688;SDS011;70518;51.400;7.428;2023-11-19T06:29:57;19.33;;;2.15;;
49688;SDS011;70518;51.400;7.428;2023-11-19T06:32:22;19.08;;;1.83;;
49688;SDS011;70518;51.400;7.428;2023-11-19T06:34:48;11.48;;;1.58;;
49688;SDS011;70518;51.400;7.428;2023-11-19T06:37:13;19.85;;;2.55;;
49688;SDS011;70518;51.400;7.428;2023-11-19T06:39:38;14.65;;;2.22;;
49688;SDS011;70518;51.400;7.428;2023-11-19T06:42:03;22.77;;;1.75;;
49688;SDS011;70518;51.400;7.428;2023-11-19T06:44:29;14.70;;;1.52;;
49688;SDS011;70518;51.400;7.428;2023-11-19T06:46:54;16.83;;;1.67;;
49688;SDS011;70518;51.400;7.428;2023-11-19T06:49:19;16.20;;;1.50;;
49688;SDS011;70518;51.400;7.428;2023-11-19T06:51:45;13.70;;;2.15;;
49688;SDS011;70518;51.400;7.428;2023-11-19T06:54:11;21.25;;;1.48;;
49688;SDS011;70518;51.400;7.428;2023-11-19T06:56:36;14.70;;;1.25;;
49688;SDS011;70518;51.400;7.428;2023-11-19T06:59:02;17.70;;;1.30;;
49688;SDS011;70518;51.400;7.428;2023-11-19T07:01:27;11.45;;;1.52;;
49688;SDS011;70518;51.400;7.428;2023-11-19T07:03:52;15.07;;;1.23;;
49688;SDS011;70518;51.400;7.428;2023-11-19T07:06:17;13.10;;;1.05;;
49688;SDS011;70518;51.400;7.428;2023-11-19T07:08:43;22.13;;;1.77;;
49688;SDS011;70518;51.400;7.428;2023-11-19T07:11:12;18.45;;;1.50;;
49688;SDS011;70518;51.400;7.428;2023-11-19T07:13:39;16.67;;;1.30;;
49688;SDS011;70518;51.400;7.428;2023-11-19T07:16:04;14.50;;;1.92;;
49688;SDS011;70518;51.400;7.428;2023-11-19T07:18:30;11.60;;;1.10;;
49688;SDS011;70518;51.400;7.428;2023-11-19T07:20:56;14.13;;;1.20;;
49688;SDS011;70518;51.400;7.428;2023-11-19T07:23:22;18.00;;;1.83;;
49688;SDS011;70518;51.400;7.428;2023-11-19T07:25:47;11.55;;;1.10;;
49688;SDS011;70518;51.400;7.428;2023-11-19T07:28:15;11.43;;;1.67;;
49688;SDS011;70518;51.400;7.428;2023-11-19T07:30:41;13.20;;;1.50;;
49688;SDS011;70518;51.400;7.428;2023-11-19T07:33:07;15.25;;;1.40;;
49688;SDS011;70518;51.400;7.428;2023-11-19T07:35:33;17.65;;;2.17;;
49688;SDS011;70518;51.400;7.428;2023-11-19T07:37:58;16.65;;;1.83;;
49688;SDS011;70518;51.400;7.428;2023-11-19T07:40:24;16.20;;;3.17;;
49688;SDS011;70518;51.400;7.428;2023-11-19T07:42:49;20.40;;;2.88;;
49688;SDS011;70518;51.400;7.428;2023-11-19T07:45:15;16.90;;;1.63;;
49688;SDS011;70518;51.400;7.428;2023-11-19T07:47:41;17.40;;;1.45;;
49688;SDS011;70518;51.400;7.428;2023-11-19T07:50:09;17.48;;;2.53;;
49688;SDS011;70518;51.400;7.428;2023-11-19T07:52:35;12.90;;;2.03;;
49688;SDS011;70518;51.400;7.428;2023-11-19T07:55:00;18.33;;;1.95;;
49688;SDS011;70518;51.400;7.428;2023-11-19T07:57:26;13.82;;;2.00;;
49688;SDS011;70518;51.400;7.428;2023-11-19T07:59:55;17.33;;;2.22;;
49688;SDS011;70518;51.400;7.428;2023-11-19T08:02:20;13.88;;;1.10;;
49688;SDS011;70518;51.400;7.428;2023-11-19T08:04:46;21.92;;;1.88;;
49688;SDS011;70518;51.400;7.428;2023-11-19T08:07:15;16.77;;;2.13;;
49688;SDS011;70518;51.400;7.428;2023-11-19T08:09:40;17.67;;;1.85;;
49688;SDS011;70518;51.400;7.428;2023-11-19T08:12:05;17.85;;;2.15;;
49688;SDS011;70518;51.400;7.428;2023-11-19T08:14:32;13.70;;;1.75;;
49688;SDS011;70518;51.400;7.428;2023-11-19T08:16:57;19.33;;;1.55;;
49688;SDS011;70518;51.400;7.428;2023-11-19T08:19:23;16.73;;;1.92;;
49688;SDS011;70518;51.400;7.428;2023-11-19T08:21:50;20.23;;;1.63;;
49688;SDS011;70518;51.400;7.428;2023-11-19T08:24:16;15.65;;;2.30;;
49688;SDS011;70518;51.400;7.428;2023-11-19T08:26:41;15.07;;;2.00;;
49688;SDS011;70518;51.400;7.428;2023-11-19T08:29:07;20.45;;;1.50;;
49688;SDS011;70518;51.400;7.428;2023-11-19T08:31:32;16.20;;;2.30;;
49688;SDS011;70518;51.400;7.428;2023-11-19T08:33:57;21.13;;;2.25;;
49688;SDS011;70518;51.400;7.428;2023-11-19T08:36:23;17.65;;;1.50;;
49688;SDS011;70518;51.400;7.428;2023-11-19T08:38:48;19.65;;;3.42;;
49688;SDS011;70518;51.400;7.428;2023-11-19T08:41:13;18.75;;;1.88;;
49688;SDS011;70518;51.400;7.428;2023-11-19T08:43:39;16.92;;;2.13;;
49688;SDS011;70518;51.400;7.428;2023-11-19T08:46:09;16.73;;;2.42;;
49688;SDS011;70518;51.400;7.428;2023-11-19T08:48:35;18.75;;;2.15;;
49688;SDS011;70518;51.400;7.428;2023-11-19T08:51:00;21.48;;;1.92;;
49688;SDS011;70518;51.400;7.428;2023-11-19T08:53:25;23.02;;;1.58;;
49688;SDS011;70518;51.400;7.428;2023-11-19T08:55:50;16.95;;;1.58;;
49688;SDS011;70518;51.400;7.428;2023-11-19T08:58:16;17.30;;;1.90;;
49688;SDS011;70518;51.400;7.428;2023-11-19T09:00:41;19.77;;;2.03;;
49688;SDS011;70518;51.400;7.428;2023-11-19T09:03:06;16.88;;;1.95;;
49688;SDS011;70518;51.400;7.428;2023-11-19T09:05:33;17.10;;;2.05;;
49688;SDS011;70518;51.400;7.428;2023-11-19T09:07:58;18.52;;;1.70;;
49688;SDS011;70518;51.400;7.428;2023-11-19T09:10:24;19.88;;;2.70;;
49688;SDS011;70518;51.400;7.428;2023-11-19T09:12:49;19.80;;;2.20;;
49688;SDS011;70518;51.400;7.428;2023-11-19T09:15:14;18.75;;;2.00;;
49688;SDS011;70518;51.400;7.428;2023-11-19T09:17:39;19.50;;;1.92;;
49688;SDS011;70518;51.400;7.428;2023-11-19T09:20:06;18.98;;;1.63;;
49688;SDS011;70518;51.400;7.428;2023-11-19T09:22:32;15.00;;;1.67;;
49688;SDS011;70518;51.400;7.428;2023-11-19T09:24:57;20.00;;;1.77;;
49688;SDS011;70518;51.400;7.428;2023-11-19T09:27:25;14.88;;;1.67;;
49688;SDS011;70518;51.400;7.428;2023-11-19T09:29:50;19.02;;;2.35;;
49688;SDS011;70518;51.400;7.428;2023-11-19T09:34:47;18.33;;;1.50;;
49688;SDS011;70518;51.400;7.428;2023-11-19T09:37:12;26.95;;;3.65;;
49688;SDS011;70518;51.400;7.428;2023-11-19T09:39:37;15.95;;;2.03;;
49688;SDS011;70518;51.400;7.428;2023-11-19T09:42:02;14.82;;;1.42;;
49688;SDS011;70518;51.400;7.428;2023-11-19T09:44:28;18.63;;;1.75;;
49688;SDS011;70518;51.400;7.428;2023-11-19T09:46:54;18.95;;;1.75;;
49688;SDS011;70518;51.400;7.428;2023-11-19T09:49:22;20.05;;;1.40;;
49688;SDS011;70518;51.400;7.428;2023-11-19T09:51:51;15.70;;;1.70;;
49688;SDS011;70518;51.400;7.428;2023-11-19T09:54:16;20.38;;;1.95;;
49688;SDS011;70518;51.400;7.428;2023-11-19T09:56:42;28.10;;;2.53;;
49688;SDS011;70518;51.400;7.428;2023-11-19T09:59:08;19.67;;;1.67;;
49688;SDS011;70518;51.400;7.428;2023-11-19T10:01:35;14.50;;;1.05;;
49688;SDS011;70518;51.400;7.428;2023-11-19T10:04:01;16.05;;;1.75;;
49688;SDS011;70518;51.400;7.428;2023-11-19T10:06:27;16.45;;;2.00;;
49688;SDS011;70518;51.400;7.428;2023-11-19T10:08:53;16.55;;;2.63;;
49688;SDS011;70518;51.400;7.428;2023-11-19T10:11:20;20.35;;;1.67;;
49688;SDS011;70518;51.400;7.428;2023-11-19T10:13:45;19.45;;;1.52;;
49688;SDS011;70518;51.400;7.428;2023-11-19T10:16:12;11.18;;;1.70;;
49688;SDS011;70518;51.400;7.428;2023-11-19T10:18:42;20.77;;;1.90;;
49688;SDS011;70518;51.400;7.428;2023-11-19T10:21:11;20.98;;;2.63;;
49688;SDS011;70518;51.400;7.428;2023-11-19T10:23:47;13.63;;;1.70;;
49688;SDS011;70518;51.400;7.428;2023-11-19T10:26:14;19.65;;;1.98;;
49688;SDS011;70518;51.400;7.428;2023-11-19T10:28:39;17.23;;;1.90;;
49688;SDS011;70518;51.400;7.428;2023-11-19T10:31:10;12.15;;;1.40;;
49688;SDS011;70518;51.400;7.428;2023-11-19T10:33:36;15.95;;;1.48;;
49688;SDS011;70518;51.400;7.428;2023-11-19T10:36:01;22.33;;;1.67;;
49688;SDS011;70518;51.400;7.428;2023-11-19T10:38:26;18.63;;;2.45;;
49688;SDS011;70518;51.400;7.428;2023-11-19T10:40:52;16.60;;;2.08;;
49688;SDS011;70518;51.400;7.428;2023-11-19T10:43:19;17.20;;;2.10;;
49688;SDS011;70518;51.400;7.428;2023-11-19T10:45:47;17.17;;;1.48;;
49688;SDS011;70518;51.400;7.428;2023-11-19T10:48:13;19.85;;;1.60;;
49688;SDS011;70518;51.400;7.428;2023-11-19T10:50:39;18.33;;;1.65;;
49688;SDS011;70518;51.400;7.428;2023-11-19T10:53:05;15.43;;;1.67;;
49688;SDS011;70518;51.400;7.428;2023-11-19T10:55:33;21.83;;;2.42;;
49688;SDS011;70518;51.400;7.428;2023-11-19T10:58:03;18.08;;;1.90;;
49688;SDS011;70518;51.400;7.428;2023-11-19T11:00:30;19.08;;;2.00;;
49688;SDS011;70518;51.400;7.428;2023-11-19T11:03:02;16.42;;;1.77;;
49688;SDS011;70518;51.400;7.428;2023-11-19T11:05:35;18.15;;;1.83;;
49688;SDS011;70518;51.400;7.428;2023-11-19T11:08:03;16.02;;;2.13;;
49688;SDS011;70518;51.400;7.428;2023-11-19T11:10:31;20.35;;;1.73;;
49688;SDS011;70518;51.400;7.428;2023-11-19T11:13:01;15.00;;;1.48;;
49688;SDS011;70518;51.400;7.428;2023-11-19T11:15:28;16.65;;;1.90;;
49688;SDS011;70518;51.400;7.428;2023-11-19T11:17:57;23.27;;;2.90;;
49688;SDS011;70518;51.400;7.428;2023-11-19T11:20:26;18.55;;;2.15;;
49688;SDS011;70518;51.400;7.428;2023-11-19T11:28:56;19.13;;;1.80;;
49688;SDS011;70518;51.400;7.428;2023-11-19T11:37:18;14.65;;;1.90;;
49688;SDS011;70518;51.400;7.428;2023-11-19T11:39:53;9.70;;;1.33;;
49688;SDS011;70518;51.400;7.428;2023-11-19T11:45:00;18.42;;;2.28;;
49688;SDS011;70518;51.400;7.428;2023-11-19T11:47:25;16.80;;;2.22;;
49688;SDS011;70518;51.400;7.428;2023-11-19T11:50:11;20.83;;;1.50;;
49688;SDS011;70518;51.400;7.428;2023-11-19T11:57:53;18.05;;;1.60;;
49688;SDS011;70518;51.400;7.428;2023-11-19T12:00:26;17.15;;;1.58;;
49688;SDS011;70518;51.400;7.428;2023-11-19T12:03:01;10.77;;;1.20;;
49688;SDS011;70518;51.400;7.428;2023-11-19T12:05:27;18.67;;;1.42;;
49688;SDS011;70518;51.400;7.428;2023-11-19T12:08:03;13.73;;;1.75;;
49688;SDS011;70518;51.400;7.428;2023-11-19T12:10:32;21.50;;;2.22;;
49688;SDS011;70518;51.400;7.428;2023-11-19T12:15:31;13.25;;;1.75;;
49688;SDS011;70518;51.400;7.428;2023-11-19T12:17:56;13.32;;;1.40;;
49688;SDS011;70518;51.400;7.428;2023-11-19T12:20:22;11.50;;;1.30;;
49688;SDS011;70518;51.400;7.428;2023-11-19T12:22:48;9.32;;;1.75;;
49688;SDS011;70518;51.400;7.428;2023-11-19T12:25:15;11.82;;;1.40;;
49688;SDS011;70518;51.400;7.428;2023-11-19T12:27:43;13.05;;;1.50;;
49688;SDS011;70518;51.400;7.428;2023-11-19T12:30:10;14.32;;;1.67;;
49688;SDS011;70518;51.400;7.428;2023-11-19T12:32:39;13.93;;;1.60;;
49688;SDS011;70518;51.400;7.428;2023-11-19T12:35:05;17.65;;;1.50;;
49688;SDS011;70518;51.400;7.428;2023-11-19T12:37:31;15.90;;;1.30;;
49688;SDS011;70518;51.400;7.428;2023-11-19T12:39:57;14.73;;;1.38;;
49688;SDS011;70518;51.400;7.428;2023-11-19T12:42:44;15.40;;;1.35;;
49688;SDS011;70518;51.400;7.428;2023-11-19T12:45:12;15.13;;;1.83;;
49688;SDS011;70518;51.400;7.428;2023-11-19T12:47:42;13.55;;;2.08;;
49688;SDS011;70518;51.400;7.428;2023-11-19T12:50:12;14.10;;;1.45;;
49688;SDS011;70518;51.400;7.428;2023-11-19T12:52:38;15.55;;;1.33;;
49688;SDS011;70518;51.400;7.428;2023-11-19T12:55:05;11.27;;;1.33;;
49688;SDS011;70518;51.400;7.428;2023-11-19T12:57:48;12.40;;;1.10;;
49688;SDS011;70518;51.400;7.428;2023-11-19T13:00:23;11.05;;;1.30;;
49688;SDS011;70518;51.400;7.428;2023-11-19T13:02:50;16.55;;;1.90;;
49688;SDS011;70518;51.400;7.428;2023-11-19T13:05:24;11.88;;;1.02;;
49688;SDS011;70518;51.400;7.428;2023-11-19T13:07:51;16.23;;;1.52;;
49688;SDS011;70518;51.400;7.428;2023-11-19T13:10:23;15.40;;;1.65;;
49688;SDS011;70518;51.400;7.428;2023-11-19T13:13:01;11.88;;;0.88;;
49688;SDS011;70518;51.400;7.428;2023-11-19T13:15:33;10.30;;;0.90;;
49688;SDS011;70518;51.400;7.428;2023-11-19T13:18:00;11.65;;;0.98;;
49688;SDS011;70518;51.400;7.428;2023-11-19T13:20:26;10.80;;;1.45;;
49688;SDS011;70518;51.400;7.428;2023-11-19T13:22:55;12.10;;;1.40;;
49688;SDS011;70518;51.400;7.428;2023-11-19T13:25:29;13.55;;;0.90;;
49688;SDS011;70518;51.400;7.428;2023-11-19T13:27:55;11.57;;;1.40;;
49688;SDS011;70518;51.400;7.428;2023-11-19T13:30:20;12.73;;;1.45;;
49688;SDS011;70518;51.400;7.428;2023-11-19T13:32:50;11.38;;;1.20;;
49688;SDS011;70518;51.400;7.428;2023-11-19T13:35:16;13.50;;;1.10;;
49688;SDS011;70518;51.400;7.428;2023-11-19T13:37:42;8.23;;;0.90;;
49688;SDS011;70518;51.400;7.428;2023-11-19T13:40:08;9.65;;;1.13;;
49688;SDS011;70518;51.400;7.428;2023-11-19T13:42:35;9.38;;;0.88;;
49688;SDS011;70518;51.400;7.428;2023-11-19T13:45:02;7.90;;;0.93;;
49688;SDS011;70518;51.400;7.428;2023-11-19T13:47:28;8.40;;;1.17;;
49688;SDS011;70518;51.400;7.428;2023-11-19T13:49:53;9.65;;;0.80;;
49688;SDS011;70518;51.400;7.428;2023-11-19T13:52:18;47.50;;;15.57;;
49688;SDS011;70518;51.400;7.428;2023-11-19T13:54:44;71.70;;;22.35;;
49688;SDS011;70518;51.400;7.428;2023-11-19T13:57:09;53.15;;;15.60;;
49688;SDS011;70518;51.400;7.428;2023-11-19T13:59:39;14.82;;;1.77;;
49688;SDS011;70518;51.400;7.428;2023-11-19T14:02:05;10.95;;;1.10;;
49688;SDS011;70518;51.400;7.428;2023-11-19T14:04:32;10.25;;;1.08;;
49688;SDS011;70518;51.400;7.428;2023-11-19T14:06:57;15.70;;;1.48;;
49688;SDS011;70518;51.400;7.428;2023-11-19T14:09:23;10.68;;;0.80;;
49688;SDS011;70518;51.400;7.428;2023-11-19T14:11:48;8.13;;;1.00;;
49688;SDS011;70518;51.400;7.428;2023-11-19T14:14:16;10.30;;;1.52;;
49688;SDS011;70518;51.400;7.428;2023-11-19T14:16:41;13.27;;;1.90;;
49688;SDS011;70518;51.400;7.428;2023-11-19T14:19:06;10.32;;;1.00;;
49688;SDS011;70518;51.400;7.428;2023-11-19T14:21:32;13.70;;;1.00;;
49688;SDS011;70518;51.400;7.428;2023-11-19T14:23:57;10.85;;;1.52;;
49688;SDS011;70518;51.400;7.428;2023-11-19T14:26:22;10.95;;;1.45;;
49688;SDS011;70518;51.400;7.428;2023-11-19T14:28:48;10.75;;;1.13;;
49688;SDS011;70518;51.400;7.428;2023-11-19T14:31:13;10.75;;;1.10;;
49688;SDS011;70518;51.400;7.428;2023-11-19T14:33:38;8.80;;;0.95;;
49688;SDS011;70518;51.400;7.428;2023-11-19T14:36:04;14.40;;;1.52;;
49688;SDS011;70518;51.400;7.428;2023-11-19T14:38:29;8.60;;;0.90;;
49688;SDS011;70518;51.400;7.428;2023-11-19T14:40:55;11.88;;;1.17;;
49688;SDS011;70518;51.400;7.428;2023-11-19T14:43:20;8.35;;;1.05;;
49688;SDS011;70518;51.400;7.428;2023-11-19T14:45:45;10.52;;;1.08;;
49688;SDS011;70518;51.400;7.428;2023-11-19T14:48:10;13.30;;;1.35;;
49688;SDS011;70518;51.400;7.428;2023-11-19T14:50:36;11.93;;;0.98;;
49688;SDS011;70518;51.400;7.428;2023-11-19T14:53:01;14.52;;;1.00;;
49688;SDS011;70518;51.400;7.428;2023-11-19T14:55:27;13.07;;;1.80;;
49688;SDS011;70518;51.400;7.428;2023-11-19T14:57:52;11.05;;;1.73;;
49688;SDS011;70518;51.400;7.428;2023-11-19T15:00:18;11.15;;;1.58;;
49688;SDS011;70518;51.400;7.428;2023-11-19T15:02:44;15.35;;;1.95;;